createdAt,value
2022-08-20T00:00:21.190Z,21.80
2022-08-20T00:02:51.035Z,21.10
2022-08-20T00:05:27.150Z,21.10
2022-08-20T00:07:54.044Z,21.20
2022-08-20T00:10:22.773Z,21.20
2022-08-20T00:12:50.474Z,21.10
2022-08-20T00:15:21.535Z,21.10
2022-08-20T00:17:53.295Z,21.10
2022-08-20T00:20:23.524Z,21.40
2022-08-20T00:22:50.284Z,21.10
2022-08-20T00:25:18.124Z,21.10
2022-08-20T00:27:45.090Z,21.00
2022-08-20T00:30:13.603Z,21.00
2022-08-20T00:32:48.799Z,21.00
2022-08-20T00:35:18.466Z,20.90
2022-08-20T00:37:45.101Z,20.90
2022-08-20T00:40:22.204Z,20.90
2022-08-20T00:42:55.344Z,20.80
2022-08-20T00:45:21.938Z,20.80
2022-08-20T00:47:51.318Z,20.50
2022-08-20T00:50:22.195Z,20.70
2022-08-20T00:52:51.553Z,20.70
2022-08-20T00:55:22.903Z,20.70
2022-08-20T00:58:01.785Z,20.70
2022-08-20T01:00:37.633Z,20.70
2022-08-20T01:03:09.658Z,20.70
2022-08-20T01:05:38.322Z,20.70
2022-08-20T01:08:05.620Z,20.70
2022-08-20T01:10:39.641Z,20.70
2022-08-20T01:13:11.433Z,20.70
2022-08-20T01:15:43.406Z,20.70
2022-08-20T01:18:13.717Z,20.60
2022-08-20T01:20:47.291Z,20.60
2022-08-20T01:23:45.663Z,20.70
2022-08-20T01:26:22.257Z,20.60
2022-08-20T01:29:02.929Z,20.70
2022-08-20T01:31:35.752Z,20.70
2022-08-20T01:34:06.082Z,20.70
2022-08-20T01:36:53.513Z,20.70
2022-08-20T01:39:26.428Z,20.70
2022-08-20T01:42:08.436Z,20.60
2022-08-20T01:44:38.975Z,20.60
2022-08-20T01:47:20.510Z,20.60
2022-08-20T01:49:52.234Z,20.60
2022-08-20T01:52:36.310Z,20.60
2022-08-20T01:55:04.038Z,20.50
2022-08-20T01:57:30.668Z,20.50
2022-08-20T01:59:57.481Z,20.50
2022-08-20T02:02:26.307Z,20.90
2022-08-20T02:04:52.941Z,20.50
2022-08-20T02:07:28.340Z,20.50
2022-08-20T02:09:55.024Z,20.50
2022-08-20T02:12:21.669Z,20.50
2022-08-20T02:14:53.739Z,20.50
2022-08-20T02:17:22.806Z,20.40
2022-08-20T02:19:53.932Z,20.00
2022-08-20T02:22:37.071Z,20.30
2022-08-20T02:25:06.577Z,20.30
2022-08-20T02:27:33.302Z,20.30
2022-08-20T02:29:59.957Z,20.20
2022-08-20T02:32:33.806Z,20.20
2022-08-20T02:35:03.728Z,20.20
2022-08-20T02:37:31.048Z,20.10
2022-08-20T02:39:57.894Z,20.10
2022-08-20T02:42:24.628Z,20.00
2022-08-20T02:44:51.682Z,19.90
2022-08-20T02:47:18.323Z,19.90
2022-08-20T02:49:44.981Z,19.90
2022-08-20T02:52:12.145Z,19.80
2022-08-20T02:54:39.102Z,19.70
2022-08-20T02:57:05.984Z,19.80
2022-08-20T02:59:33.566Z,19.80
2022-08-20T03:02:01.345Z,19.80
2022-08-20T03:04:31.464Z,19.80
2022-08-20T03:06:59.305Z,19.80
2022-08-20T03:09:26.052Z,19.80
2022-08-20T03:11:52.913Z,19.80
2022-08-20T03:14:19.885Z,19.80
2022-08-20T03:16:46.500Z,19.70
2022-08-20T03:19:13.880Z,19.70
2022-08-20T03:21:41.107Z,19.70
2022-08-20T03:24:07.832Z,19.50
2022-08-20T03:26:34.586Z,19.70
2022-08-20T03:29:01.318Z,19.70
2022-08-20T03:31:28.140Z,19.70
2022-08-20T03:33:54.752Z,19.80
2022-08-20T03:36:28.381Z,19.70
2022-08-20T03:39:01.962Z,19.70
2022-08-20T03:41:28.931Z,19.70
2022-08-20T03:43:55.851Z,19.70
2022-08-20T03:46:23.760Z,19.70
2022-08-20T03:49:00.409Z,19.70
2022-08-20T03:51:31.887Z,19.60
2022-08-20T03:54:18.483Z,19.70
2022-08-20T03:56:45.186Z,19.70
2022-08-20T03:59:11.811Z,19.70
2022-08-20T04:01:45.526Z,19.70
2022-08-20T04:04:13.710Z,19.70
2022-08-20T04:06:42.514Z,19.70
2022-08-20T04:09:10.448Z,19.70
2022-08-20T04:11:39.304Z,19.70
2022-08-20T04:14:05.929Z,19.60
2022-08-20T04:16:33.099Z,21.40
2022-08-20T04:19:02.315Z,19.70
2022-08-20T04:21:32.940Z,19.70
2022-08-20T04:24:04.414Z,19.70
2022-08-20T04:26:31.633Z,19.70
2022-08-20T04:28:58.630Z,19.80
2022-08-20T04:31:25.597Z,19.80
2022-08-20T04:33:52.732Z,19.80
2022-08-20T04:36:19.402Z,19.60
2022-08-20T04:38:48.422Z,19.80
2022-08-20T04:41:23.057Z,19.80
2022-08-20T04:43:51.985Z,19.80
2022-08-20T04:46:19.422Z,19.90
2022-08-20T04:48:48.680Z,19.90
2022-08-20T04:51:15.892Z,19.90
2022-08-20T04:53:43.024Z,19.90
2022-08-20T04:56:09.716Z,19.90
2022-08-20T04:58:38.557Z,19.90
2022-08-20T05:01:08.243Z,20.00
2022-08-20T05:03:37.520Z,20.00
2022-08-20T05:06:06.568Z,20.00
2022-08-20T05:08:33.842Z,20.00
2022-08-20T05:11:32.607Z,20.00
2022-08-20T05:13:47.393Z,20.00
2022-08-20T05:16:15.184Z,20.00
2022-08-20T05:18:43.190Z,20.00
2022-08-20T05:21:10.073Z,20.00
2022-08-20T05:23:42.771Z,20.10
2022-08-20T05:26:10.688Z,20.10
2022-08-20T05:28:58.065Z,20.10
2022-08-20T05:31:31.436Z,20.10
2022-08-20T05:33:59.537Z,20.10
2022-08-20T05:36:26.263Z,20.10
2022-08-20T05:38:53.810Z,20.10
2022-08-20T05:41:29.342Z,20.10
2022-08-20T05:43:57.899Z,20.10
2022-08-20T05:46:24.584Z,22.40
2022-08-20T05:48:51.188Z,20.10
2022-08-20T05:51:17.886Z,20.20
2022-08-20T05:53:44.559Z,20.20
2022-08-20T05:56:11.338Z,20.20
2022-08-20T05:58:38.208Z,20.20
2022-08-20T06:01:05.647Z,20.20
2022-08-20T06:03:51.196Z,20.30
2022-08-20T06:06:20.677Z,20.30
2022-08-20T06:09:04.758Z,20.40
2022-08-20T06:11:35.123Z,20.40
2022-08-20T06:14:04.003Z,20.50
2022-08-20T06:16:30.776Z,20.50
2022-08-20T06:18:58.508Z,20.50
2022-08-20T06:21:25.436Z,20.40
2022-08-20T06:23:57.267Z,20.40
2022-08-20T06:26:30.382Z,20.40
2022-08-20T06:28:59.695Z,20.30
2022-08-20T06:31:27.453Z,20.30
2022-08-20T06:33:54.409Z,20.30
2022-08-20T06:36:21.337Z,20.30
2022-08-20T06:38:47.931Z,20.20
2022-08-20T06:41:14.552Z,20.30
2022-08-20T06:43:41.181Z,20.30
2022-08-20T06:46:08.212Z,20.30
2022-08-20T06:48:35.026Z,20.30
2022-08-20T06:51:01.682Z,20.30
2022-08-20T06:53:28.964Z,20.30
2022-08-20T06:55:58.773Z,20.40
2022-08-20T06:58:36.348Z,20.40
2022-08-20T07:01:11.036Z,20.40
2022-08-20T07:03:42.234Z,20.40
2022-08-20T07:06:22.076Z,20.50
2022-08-20T07:08:48.692Z,20.60
2022-08-20T07:11:15.337Z,20.60
2022-08-20T07:13:42.007Z,20.60
2022-08-20T07:16:08.954Z,20.60
2022-08-20T07:18:36.369Z,20.60
2022-08-20T07:21:03.735Z,20.60
2022-08-20T07:23:31.618Z,20.60
2022-08-20T07:25:58.688Z,20.60
2022-08-20T07:28:31.892Z,20.60
2022-08-20T07:31:17.286Z,20.70
2022-08-20T07:33:47.092Z,20.60
2022-08-20T07:36:17.642Z,20.60
2022-08-20T07:38:47.190Z,20.50
2022-08-20T07:41:14.934Z,20.60
2022-08-20T07:43:45.435Z,20.60
2022-08-20T07:46:14.310Z,20.70
2022-08-20T07:48:46.085Z,20.60
2022-08-20T07:51:14.986Z,20.60
2022-08-20T07:53:41.902Z,20.60
2022-08-20T07:56:13.123Z,20.60
2022-08-20T07:58:50.325Z,20.60
2022-08-20T08:01:20.131Z,20.60
2022-08-20T08:03:49.960Z,20.60
2022-08-20T08:06:28.368Z,20.60
2022-08-20T08:09:09.590Z,20.40
2022-08-20T08:11:39.283Z,20.60
2022-08-20T08:14:09.774Z,20.60
2022-08-20T08:16:37.090Z,20.60
2022-08-20T08:19:06.511Z,20.60
2022-08-20T08:21:33.122Z,20.60
2022-08-20T08:24:00.190Z,20.60
2022-08-20T08:26:28.777Z,20.60
2022-08-20T08:28:55.858Z,20.70
2022-08-20T08:31:22.420Z,20.70
2022-08-20T08:33:49.047Z,20.70
2022-08-20T08:36:16.234Z,20.60
2022-08-20T08:38:44.713Z,20.60
2022-08-20T08:41:29.439Z,20.60
2022-08-20T08:44:05.987Z,20.60
2022-08-20T08:46:38.126Z,20.70
2022-08-20T08:49:05.357Z,20.70
2022-08-20T08:51:42.879Z,20.70
2022-08-20T08:54:13.526Z,20.80
2022-08-20T08:56:40.484Z,20.80
2022-08-20T08:59:08.718Z,20.80
2022-08-20T09:01:54.753Z,20.90
2022-08-20T09:04:29.148Z,20.90
2022-08-20T09:06:55.812Z,21.00
2022-08-20T09:09:29.128Z,21.10
2022-08-20T09:12:02.097Z,21.20
2022-08-20T09:14:28.963Z,21.30
2022-08-20T09:16:55.571Z,21.50
2022-08-20T09:19:22.285Z,21.50
2022-08-20T09:21:49.408Z,21.60
2022-08-20T09:24:16.228Z,21.70
2022-08-20T09:26:42.817Z,21.70
2022-08-20T09:29:10.071Z,21.80
2022-08-20T09:31:38.217Z,21.80
2022-08-20T09:34:05.712Z,21.80
2022-08-20T09:36:33.140Z,21.80
2022-08-20T09:39:00.763Z,21.80
2022-08-20T09:41:29.899Z,21.90
2022-08-20T09:43:56.660Z,21.90
2022-08-20T09:46:27.234Z,21.80
2022-08-20T09:48:54.602Z,21.80
2022-08-20T09:51:21.754Z,21.80
2022-08-20T09:53:49.008Z,21.80
2022-08-20T09:56:15.814Z,21.80
2022-08-20T09:58:50.816Z,21.90
2022-08-20T10:01:19.853Z,21.90
2022-08-20T10:03:48.986Z,21.90
2022-08-20T10:06:20.240Z,21.90
2022-08-20T10:08:48.284Z,21.80
2022-08-20T10:11:15.360Z,21.90
2022-08-20T10:13:42.007Z,23.30
2022-08-20T10:16:08.707Z,22.00
2022-08-20T10:18:36.499Z,22.10
2022-08-20T10:21:03.414Z,22.20
2022-08-20T10:23:30.617Z,22.30
2022-08-20T10:25:57.261Z,22.30
2022-08-20T10:28:23.868Z,22.30
2022-08-20T10:30:50.455Z,22.30
2022-08-20T10:33:17.117Z,22.40
2022-08-20T10:35:43.693Z,23.90
2022-08-20T10:38:10.329Z,22.60
2022-08-20T10:40:36.975Z,22.70
2022-08-20T10:43:04.028Z,22.80
2022-08-20T10:45:30.874Z,22.90
2022-08-20T10:48:01.716Z,22.90
2022-08-20T10:50:30.476Z,23.00
2022-08-20T10:52:57.990Z,23.10
2022-08-20T10:55:24.844Z,23.10
2022-08-20T10:57:51.537Z,23.10
2022-08-20T11:00:19.330Z,23.00
2022-08-20T11:02:46.246Z,23.20
2022-08-20T11:05:15.646Z,23.20
2022-08-20T11:07:52.787Z,23.20
2022-08-20T11:10:25.112Z,23.20
2022-08-20T11:12:51.748Z,23.10
2022-08-20T11:15:18.458Z,23.10
2022-08-20T11:17:45.974Z,23.10
2022-08-20T11:20:15.014Z,23.20
2022-08-20T11:22:41.616Z,23.20
2022-08-20T11:25:09.258Z,23.20
2022-08-20T11:27:40.455Z,23.20
2022-08-20T11:30:10.525Z,23.20
2022-08-20T11:32:37.396Z,23.20
2022-08-20T11:35:24.507Z,23.30
2022-08-20T11:37:52.132Z,23.20
2022-08-20T11:40:19.425Z,23.20
2022-08-20T11:43:11.051Z,23.30
2022-08-20T11:45:37.657Z,23.20
2022-08-20T11:48:05.160Z,23.20
2022-08-20T11:50:32.022Z,23.10
2022-08-20T11:52:58.890Z,23.10
2022-08-20T11:55:30.462Z,23.10
2022-08-20T11:57:59.981Z,22.90
2022-08-20T12:00:32.238Z,23.00
2022-08-20T12:03:01.387Z,23.00
2022-08-20T12:05:29.666Z,23.00
2022-08-20T12:07:57.649Z,23.00
2022-08-20T12:10:28.198Z,23.00
2022-08-20T12:12:56.141Z,23.00
2022-08-20T12:15:23.859Z,23.00
2022-08-20T12:17:50.485Z,23.00
2022-08-20T12:20:17.157Z,23.10
2022-08-20T12:22:46.732Z,23.10
2022-08-20T12:25:13.521Z,23.10
2022-08-20T12:27:41.276Z,23.10
2022-08-20T12:30:15.059Z,23.10
2022-08-20T12:32:42.453Z,23.20
2022-08-20T12:35:10.587Z,22.90
2022-08-20T12:37:37.621Z,22.90
2022-08-20T12:40:08.352Z,22.60
2022-08-20T12:42:35.241Z,22.60
2022-08-20T12:45:02.149Z,22.60
2022-08-20T12:47:35.014Z,22.60
2022-08-20T12:50:10.926Z,22.70
2022-08-20T12:52:37.955Z,22.80
2022-08-20T12:55:06.140Z,22.90
2022-08-20T12:57:39.204Z,23.10
2022-08-20T13:00:09.402Z,23.10
2022-08-20T13:02:38.633Z,23.20
2022-08-20T13:05:07.652Z,23.10
2022-08-20T13:07:34.868Z,23.20
2022-08-20T13:10:02.692Z,23.10
2022-08-20T13:12:29.375Z,22.90
2022-08-20T13:14:55.984Z,22.90
2022-08-20T13:17:33.621Z,23.10
2022-08-20T13:20:08.269Z,22.90
2022-08-20T13:22:35.050Z,22.80
2022-08-20T13:25:01.704Z,22.90
2022-08-20T13:27:28.338Z,22.80
2022-08-20T13:29:58.862Z,22.80
2022-08-20T13:32:26.364Z,22.70
2022-08-20T13:34:53.025Z,22.70
2022-08-20T13:37:25.978Z,22.60
2022-08-20T13:39:54.058Z,22.40
2022-08-20T13:42:21.652Z,22.40
2022-08-20T13:44:48.823Z,22.00
2022-08-20T13:47:25.721Z,22.20
2022-08-20T13:50:02.017Z,22.20
2022-08-20T13:52:28.693Z,22.20
2022-08-20T13:54:55.375Z,22.10
2022-08-20T13:57:23.630Z,22.00
2022-08-20T13:59:55.482Z,21.90
2022-08-20T14:02:22.940Z,21.80
2022-08-20T14:04:50.890Z,21.70
2022-08-20T14:07:25.942Z,21.60
2022-08-20T14:10:01.123Z,21.50
2022-08-20T14:12:28.309Z,21.50
2022-08-20T14:14:57.484Z,21.30
2022-08-20T14:17:28.133Z,21.30
2022-08-20T14:20:05.572Z,21.30
2022-08-20T14:22:33.662Z,21.20
2022-08-20T14:25:03.512Z,21.20
2022-08-20T14:27:32.607Z,21.20
2022-08-20T14:30:00.237Z,21.10
2022-08-20T14:32:27.295Z,21.20
2022-08-20T14:34:54.730Z,21.20
2022-08-20T14:37:26.001Z,21.20
2022-08-20T14:39:56.898Z,21.30
2022-08-20T14:42:24.446Z,21.30
2022-08-20T14:44:51.311Z,21.30
2022-08-20T14:47:20.575Z,21.30
2022-08-20T14:49:48.707Z,21.40
2022-08-20T14:52:17.056Z,21.30
2022-08-20T14:54:44.439Z,21.20
2022-08-20T14:57:12.923Z,20.30
2022-08-20T14:59:40.893Z,21.10
2022-08-20T15:02:10.512Z,21.10
2022-08-20T15:04:37.625Z,21.20
2022-08-20T15:07:07.994Z,21.20
2022-08-20T15:09:37.818Z,21.00
2022-08-20T15:12:04.854Z,20.90
2022-08-20T15:14:31.443Z,20.90
2022-08-20T15:16:58.286Z,20.80
2022-08-20T15:19:24.906Z,20.90
2022-08-20T15:21:51.621Z,20.90
2022-08-20T15:24:19.456Z,20.90
2022-08-20T15:26:46.706Z,21.00
2022-08-20T15:29:22.803Z,20.90
2022-08-20T15:31:50.395Z,21.00
2022-08-20T15:34:17.894Z,21.10
2022-08-20T15:36:44.984Z,21.10
2022-08-20T15:39:11.612Z,21.20
2022-08-20T15:41:38.259Z,21.20
2022-08-20T15:44:04.914Z,21.20
2022-08-20T15:46:36.194Z,21.20
2022-08-20T15:49:11.357Z,21.20
2022-08-20T15:51:45.011Z,21.20
2022-08-20T15:54:19.364Z,21.10
2022-08-20T15:56:51.699Z,20.90
2022-08-20T16:00:02.724Z,21.00
2022-08-20T16:02:59.200Z,21.00
2022-08-20T16:06:00.866Z,21.00
2022-08-20T16:09:06.348Z,21.00
2022-08-20T16:11:52.328Z,21.00
2022-08-20T16:14:23.344Z,21.00
2022-08-20T16:16:56.722Z,21.00
2022-08-20T16:19:46.556Z,20.80
2022-08-20T16:22:15.973Z,21.00
2022-08-20T16:24:42.789Z,20.70
2022-08-20T16:27:19.297Z,20.70
2022-08-20T16:30:08.265Z,20.40
2022-08-20T16:32:44.561Z,20.70
2022-08-20T16:35:29.818Z,20.70
2022-08-20T16:38:06.696Z,20.80
2022-08-20T16:40:49.499Z,20.70
2022-08-20T16:43:50.964Z,20.80
2022-08-20T16:46:27.778Z,20.80
2022-08-20T16:48:58.334Z,20.80
2022-08-20T16:51:48.209Z,20.80
2022-08-20T16:54:34.103Z,20.80
2022-08-20T16:57:05.966Z,20.80
2022-08-20T16:59:33.936Z,20.80
2022-08-20T17:02:10.980Z,20.80
2022-08-20T17:04:58.645Z,20.80
2022-08-20T17:07:50.128Z,20.80
2022-08-20T17:10:23.756Z,20.80
2022-08-20T17:13:00.171Z,20.80
2022-08-20T17:15:30.802Z,20.90
2022-08-20T17:17:57.943Z,20.90
2022-08-20T17:20:28.202Z,20.90
2022-08-20T17:23:10.953Z,20.90
2022-08-20T17:25:38.410Z,20.90
2022-08-20T17:28:17.157Z,21.00
2022-08-20T17:30:45.868Z,21.00
2022-08-20T17:33:39.502Z,21.00
2022-08-20T17:36:17.736Z,21.70
2022-08-20T17:38:50.468Z,21.30
2022-08-20T17:41:30.520Z,21.00
2022-08-20T17:44:04.323Z,21.00
2022-08-20T17:46:35.980Z,20.90
2022-08-20T17:49:08.450Z,20.90
2022-08-20T17:51:43.501Z,20.90
2022-08-20T17:54:37.173Z,20.90
2022-08-20T17:57:09.603Z,21.00
2022-08-20T18:00:00.356Z,20.90
2022-08-20T18:02:30.560Z,20.90
2022-08-20T18:04:57.478Z,20.80
2022-08-20T18:08:01.405Z,20.80
2022-08-20T18:10:29.616Z,20.90
2022-08-20T18:13:07.586Z,20.80
2022-08-20T18:15:56.194Z,20.80
2022-08-20T18:18:58.667Z,20.70
2022-08-20T18:22:13.572Z,20.70
2022-08-20T18:25:38.800Z,20.60
2022-08-20T18:28:25.218Z,20.50
2022-08-20T18:30:58.113Z,20.50
2022-08-20T18:33:37.075Z,20.50
2022-08-20T18:36:32.223Z,20.40
2022-08-20T18:39:29.725Z,20.40
2022-08-20T18:42:03.099Z,20.30
2022-08-20T18:44:45.967Z,20.30
2022-08-20T18:47:26.072Z,20.20
2022-08-20T18:50:19.446Z,20.10
2022-08-20T18:52:49.451Z,20.10
2022-08-20T18:55:32.227Z,20.10
2022-08-20T18:58:00.137Z,20.10
2022-08-20T19:00:34.171Z,20.00
2022-08-20T19:03:15.771Z,20.00
2022-08-20T19:05:45.277Z,20.10
2022-08-20T19:08:19.371Z,20.00
2022-08-20T19:11:06.908Z,21.50
2022-08-20T19:13:56.522Z,20.00
2022-08-20T19:16:40.732Z,19.90
2022-08-20T19:19:22.412Z,19.80
2022-08-20T19:21:49.561Z,17.70
2022-08-20T19:24:25.953Z,19.90
2022-08-20T19:27:01.118Z,19.90
2022-08-20T19:29:31.846Z,19.90
2022-08-20T19:32:16.151Z,20.00
2022-08-20T19:34:49.436Z,19.90
2022-08-20T19:37:35.137Z,20.00
2022-08-20T19:40:19.168Z,20.00
2022-08-20T19:42:45.964Z,20.10
2022-08-20T19:45:21.558Z,20.00
2022-08-20T19:48:09.058Z,20.00
2022-08-20T19:51:00.446Z,20.00
2022-08-20T19:53:33.193Z,20.00
2022-08-20T19:56:12.444Z,20.00
2022-08-20T19:58:40.763Z,20.10
2022-08-20T20:01:17.358Z,20.10
2022-08-20T20:03:55.683Z,20.10
2022-08-20T20:06:24.725Z,22.00
2022-08-20T20:09:02.361Z,20.10
2022-08-20T20:11:36.449Z,20.10
2022-08-20T20:14:06.210Z,20.10
2022-08-20T20:16:34.571Z,20.10
2022-08-20T20:19:24.669Z,19.90
2022-08-20T20:22:00.694Z,20.00
2022-08-20T20:24:31.278Z,20.10
2022-08-20T20:26:59.040Z,20.00
2022-08-20T20:29:37.945Z,20.00
2022-08-20T20:32:16.593Z,20.00
2022-08-20T20:34:55.706Z,20.00
2022-08-20T20:37:49.606Z,20.00
2022-08-20T20:40:27.924Z,20.00
2022-08-20T20:43:02.227Z,20.00
2022-08-20T20:45:34.521Z,20.00
2022-08-20T20:48:10.168Z,20.10
2022-08-20T20:50:37.514Z,19.90
2022-08-20T20:53:06.909Z,20.20
2022-08-20T20:55:38.153Z,20.10
2022-08-20T20:58:08.108Z,20.10
2022-08-20T21:00:34.827Z,20.00
2022-08-20T21:03:02.616Z,20.00
2022-08-20T21:05:31.827Z,20.00
2022-08-20T21:08:06.687Z,19.80
2022-08-20T21:10:37.197Z,20.00
2022-08-20T21:13:05.202Z,20.00
2022-08-20T21:15:33.138Z,19.80
2022-08-20T21:18:01.713Z,20.00
2022-08-20T21:20:31.806Z,19.90
2022-08-20T21:23:00.130Z,19.90
2022-08-20T21:25:28.519Z,19.90
2022-08-20T21:27:55.880Z,20.00
2022-08-20T21:30:24.089Z,20.00
2022-08-20T21:32:51.316Z,20.00
2022-08-20T21:35:18.880Z,19.80
2022-08-20T21:37:45.659Z,20.00
2022-08-20T21:40:13.809Z,19.80
2022-08-20T21:42:41.303Z,22.10
2022-08-20T21:45:18.743Z,19.80
2022-08-20T21:47:48.884Z,19.80
2022-08-20T21:50:18.621Z,19.80
2022-08-20T21:52:59.321Z,19.70
2022-08-20T21:55:28.373Z,19.70
2022-08-20T21:57:55.202Z,19.70
2022-08-20T22:01:11.163Z,19.70
2022-08-20T22:03:38.957Z,19.60
2022-08-20T22:06:11.612Z,20.30
2022-08-20T22:08:38.306Z,19.70
2022-08-20T22:11:06.989Z,19.70
2022-08-20T22:13:34.405Z,19.80
2022-08-20T22:16:02.670Z,19.80
2022-08-20T22:18:33.401Z,19.80
2022-08-20T22:21:00.823Z,19.90
2022-08-20T22:23:28.120Z,19.80
2022-08-20T22:25:59.297Z,19.80
2022-08-20T22:28:26.794Z,19.70
2022-08-20T22:30:53.671Z,19.90
2022-08-20T22:33:22.702Z,19.90
2022-08-20T22:35:53.768Z,19.90
2022-08-20T22:38:21.105Z,19.90
2022-08-20T22:40:48.306Z,19.90
2022-08-20T22:43:15.862Z,19.90
2022-08-20T22:45:45.256Z,19.90
2022-08-20T22:48:16.518Z,19.90
2022-08-20T22:50:43.963Z,20.00
2022-08-20T22:53:11.418Z,19.90
2022-08-20T22:55:38.836Z,19.90
2022-08-20T22:58:06.590Z,19.90
2022-08-20T23:00:33.898Z,19.90
2022-08-20T23:03:02.275Z,19.90
2022-08-20T23:05:33.032Z,19.90
2022-08-20T23:08:00.525Z,19.80
2022-08-20T23:10:29.825Z,19.80
2022-08-20T23:12:57.593Z,19.80
2022-08-20T23:15:26.256Z,19.80
2022-08-20T23:18:00.391Z,19.80
2022-08-20T23:20:27.208Z,19.80
2022-08-20T23:22:54.712Z,19.90
2022-08-20T23:25:21.516Z,19.70
2022-08-20T23:27:51.077Z,19.90
2022-08-20T23:30:20.080Z,20.00
2022-08-20T23:32:47.359Z,20.00
2022-08-20T23:35:14.346Z,20.00
2022-08-20T23:37:52.760Z,19.90
2022-08-20T23:40:28.085Z,19.90
2022-08-20T23:42:55.941Z,19.80
2022-08-20T23:45:23.030Z,19.80
2022-08-20T23:47:49.985Z,19.80
2022-08-20T23:50:24.974Z,19.80
2022-08-20T23:52:52.713Z,19.80
2022-08-20T23:55:20.890Z,19.70
2022-08-20T23:57:47.515Z,19.60
